createdAt,value
2018-05-06T00:02:20.235Z,1.43
2018-05-06T00:04:47.699Z,1.70
2018-05-06T00:07:15.084Z,1.73
2018-05-06T00:09:42.603Z,1.50
2018-05-06T00:12:10.080Z,2.00
2018-05-06T00:14:38.289Z,1.83
2018-05-06T00:17:05.710Z,1.47
2018-05-06T00:19:33.089Z,2.07
2018-05-06T00:22:00.485Z,2.30
2018-05-06T00:24:27.966Z,2.70
2018-05-06T00:26:55.402Z,1.70
2018-05-06T00:29:22.869Z,1.97
2018-05-06T00:31:50.353Z,2.10
2018-05-06T00:34:17.824Z,2.20
2018-05-06T00:36:45.248Z,2.17
2018-05-06T00:39:12.701Z,2.40
2018-05-06T00:41:40.084Z,1.90
2018-05-06T00:44:07.501Z,2.20
2018-05-06T00:46:34.885Z,2.50
2018-05-06T00:49:02.278Z,1.93
2018-05-06T00:51:29.664Z,1.90
2018-05-06T00:53:57.129Z,2.17
2018-05-06T00:56:24.516Z,2.00
2018-05-06T00:58:51.913Z,2.10
2018-05-06T01:01:19.306Z,1.90
2018-05-06T01:03:46.742Z,1.80
2018-05-06T01:06:14.120Z,1.50
2018-05-06T01:08:41.527Z,2.07
2018-05-06T01:11:08.933Z,2.30
2018-05-06T01:13:36.414Z,2.20
2018-05-06T01:16:03.796Z,2.20
2018-05-06T01:18:31.194Z,2.07
2018-05-06T01:20:58.591Z,1.93
2018-05-06T01:23:25.984Z,2.37
2018-05-06T01:25:53.389Z,2.40
2018-05-06T01:28:20.806Z,1.83
2018-05-06T01:30:48.196Z,1.70
2018-05-06T01:33:15.674Z,2.10
2018-05-06T01:35:43.054Z,2.03
2018-05-06T01:38:10.486Z,2.40
2018-05-06T01:40:37.922Z,1.70
2018-05-06T01:43:05.378Z,1.90
2018-05-06T01:45:32.833Z,2.27
2018-05-06T01:48:00.309Z,2.40
2018-05-06T01:50:27.715Z,2.40
2018-05-06T01:52:55.105Z,2.23
2018-05-06T01:55:22.498Z,1.90
2018-05-06T01:57:49.917Z,2.10
2018-05-06T02:00:17.364Z,2.30
2018-05-06T02:02:44.784Z,2.60
2018-05-06T02:05:12.167Z,2.27
2018-05-06T02:07:39.573Z,2.03
2018-05-06T02:10:06.965Z,2.30
2018-05-06T02:12:34.368Z,2.23
2018-05-06T02:15:01.806Z,3.10
2018-05-06T02:17:29.198Z,2.50
2018-05-06T02:19:56.594Z,2.50
2018-05-06T02:22:23.984Z,2.30
2018-05-06T02:24:51.403Z,2.30
2018-05-06T02:27:18.788Z,2.50
2018-05-06T02:29:46.181Z,2.77
2018-05-06T02:32:13.573Z,2.30
2018-05-06T02:34:41.022Z,2.10
2018-05-06T02:37:08.510Z,2.80
2018-05-06T02:39:35.969Z,2.60
2018-05-06T02:42:03.422Z,2.20
2018-05-06T02:44:30.824Z,2.73
2018-05-06T02:46:58.243Z,2.43
2018-05-06T02:49:25.746Z,2.33
2018-05-06T02:51:53.139Z,2.63
2018-05-06T02:54:20.549Z,2.60
2018-05-06T02:56:47.941Z,2.43
2018-05-06T02:59:15.353Z,2.63
2018-05-06T03:01:42.746Z,2.43
2018-05-06T03:04:10.577Z,2.33
2018-05-06T03:06:37.967Z,2.40
2018-05-06T03:09:05.362Z,3.00
2018-05-06T03:11:32.843Z,2.30
2018-05-06T03:14:00.237Z,3.30
2018-05-06T03:16:27.646Z,3.27
2018-05-06T03:18:55.043Z,3.33
2018-05-06T03:21:22.445Z,2.30
2018-05-06T03:23:49.840Z,2.73
2018-05-06T03:26:17.233Z,3.20
2018-05-06T03:28:44.660Z,2.93
2018-05-06T03:31:12.044Z,2.60
2018-05-06T03:33:39.450Z,3.20
2018-05-06T03:36:06.945Z,3.00
2018-05-06T03:38:34.436Z,3.10
2018-05-06T03:41:01.837Z,2.63
2018-05-06T03:43:29.242Z,2.60
2018-05-06T03:45:56.625Z,3.03
2018-05-06T03:48:24.023Z,3.00
2018-05-06T03:50:51.477Z,2.53
2018-05-06T03:53:18.869Z,2.50
2018-05-06T03:55:46.285Z,2.90
2018-05-06T04:01:17.554Z,2.70
2018-05-06T04:03:44.949Z,3.33
2018-05-06T04:06:12.348Z,3.10
2018-05-06T04:08:39.827Z,3.67
2018-05-06T04:11:07.219Z,3.40
2018-05-06T04:13:34.691Z,3.23
2018-05-06T04:16:02.085Z,3.60
2018-05-06T04:18:29.555Z,2.90
2018-05-06T04:20:56.945Z,2.70
2018-05-06T04:23:24.335Z,3.37
2018-05-06T04:25:51.733Z,3.27
2018-05-06T04:28:20.061Z,3.80
2018-05-06T04:30:47.461Z,3.00
2018-05-06T04:33:14.898Z,3.60
2018-05-06T04:35:42.293Z,3.10
2018-05-06T04:38:09.688Z,3.27
2018-05-06T04:40:37.101Z,3.43
2018-05-06T04:43:04.494Z,3.47
2018-05-06T04:45:31.917Z,2.90
2018-05-06T04:47:59.394Z,4.00
2018-05-06T04:50:26.874Z,3.80
2018-05-06T04:52:54.288Z,3.97
2018-05-06T04:55:21.711Z,3.50
2018-05-06T04:57:49.101Z,4.23
2018-05-06T05:00:16.499Z,3.47
2018-05-06T05:02:43.913Z,3.60
2018-05-06T05:05:11.396Z,3.50
2018-05-06T05:07:38.781Z,3.10
2018-05-06T05:10:06.182Z,3.40
2018-05-06T05:12:33.570Z,3.23
2018-05-06T05:15:00.985Z,2.87
2018-05-06T05:17:28.373Z,2.60
2018-05-06T05:19:55.826Z,3.70
2018-05-06T05:22:23.222Z,2.80
2018-05-06T05:24:50.617Z,2.70
2018-05-06T05:27:18.076Z,3.00
2018-05-06T05:29:45.533Z,2.57
2018-05-06T05:32:12.970Z,3.30
2018-05-06T05:34:40.382Z,3.47
2018-05-06T05:37:07.783Z,2.90
2018-05-06T05:39:35.189Z,2.90
2018-05-06T05:42:02.614Z,3.70
2018-05-06T05:44:30.018Z,3.10
2018-05-06T05:46:57.401Z,2.90
2018-05-06T05:49:24.897Z,3.23
2018-05-06T05:51:52.272Z,3.10
2018-05-06T05:54:19.680Z,2.87
2018-05-06T05:56:47.087Z,2.67
2018-05-06T05:59:14.487Z,2.70
2018-05-06T06:01:41.960Z,3.07
2018-05-06T06:04:09.361Z,3.33
2018-05-06T06:06:36.759Z,3.20
2018-05-06T06:09:04.144Z,3.00
2018-05-06T06:11:31.581Z,2.40
2018-05-06T06:13:59.059Z,3.07
2018-05-06T06:16:26.608Z,2.70
2018-05-06T06:18:53.986Z,3.23
2018-05-06T06:21:21.405Z,3.03
2018-05-06T06:23:48.797Z,2.83
2018-05-06T06:26:16.218Z,2.50
2018-05-06T06:28:43.613Z,3.43
2018-05-06T06:31:11.022Z,2.93
2018-05-06T06:33:38.417Z,2.90
2018-05-06T06:36:05.949Z,4.03
2018-05-06T06:38:33.397Z,2.63
2018-05-06T06:41:00.794Z,3.40
2018-05-06T06:43:28.177Z,2.53
2018-05-06T06:45:55.604Z,2.80
2018-05-06T06:48:22.990Z,2.70
2018-05-06T06:50:50.388Z,2.70
2018-05-06T06:53:17.774Z,2.77
2018-05-06T06:55:45.194Z,2.60
2018-05-06T06:58:12.582Z,2.73
2018-05-06T07:00:39.976Z,2.53
2018-05-06T07:03:07.453Z,2.43
2018-05-06T07:05:34.853Z,2.50
2018-05-06T07:08:02.263Z,2.63
2018-05-06T07:10:29.686Z,2.70
2018-05-06T07:12:57.074Z,2.43
2018-05-06T07:15:24.473Z,2.67
2018-05-06T07:17:51.875Z,2.50
2018-05-06T07:20:19.265Z,2.47
2018-05-06T07:22:46.661Z,2.47
2018-05-06T07:25:14.081Z,2.50
2018-05-06T07:27:41.515Z,2.33
2018-05-06T07:30:08.897Z,2.80
2018-05-06T07:32:36.306Z,2.07
2018-05-06T07:35:03.782Z,2.43
2018-05-06T07:37:31.173Z,2.10
2018-05-06T07:39:58.566Z,2.40
2018-05-06T07:42:25.963Z,2.27
2018-05-06T07:44:53.386Z,2.60
2018-05-06T07:47:20.905Z,2.13
2018-05-06T07:49:50.952Z,2.37
2018-05-06T07:52:18.744Z,2.27
2018-05-06T07:54:46.217Z,2.70
2018-05-06T07:57:13.663Z,2.00
2018-05-06T07:59:41.124Z,2.30
2018-05-06T08:02:08.518Z,2.20
2018-05-06T08:04:35.940Z,2.60
2018-05-06T08:07:03.411Z,3.27
2018-05-06T08:09:30.793Z,1.97
2018-05-06T08:11:58.205Z,2.30
2018-05-06T08:14:25.592Z,2.07
2018-05-06T08:16:53.032Z,2.60
2018-05-06T08:19:20.468Z,2.67
2018-05-06T08:21:47.866Z,1.90
2018-05-06T08:24:15.294Z,2.00
2018-05-06T08:26:42.689Z,2.40
2018-05-06T08:29:11.075Z,2.47
2018-05-06T08:31:38.461Z,2.00
2018-05-06T08:34:06.888Z,2.20
2018-05-06T08:36:34.369Z,1.90
2018-05-06T08:39:01.813Z,2.10
2018-05-06T08:41:29.292Z,2.00
2018-05-06T08:43:56.706Z,2.20
2018-05-06T08:46:24.097Z,1.90
2018-05-06T08:48:51.514Z,2.33
2018-05-06T08:51:18.929Z,2.33
2018-05-06T08:53:46.321Z,1.97
2018-05-06T08:56:13.733Z,2.27
2018-05-06T08:58:41.138Z,2.33
2018-05-06T09:01:08.540Z,2.17
2018-05-06T09:03:36.017Z,1.90
2018-05-06T09:06:03.437Z,1.77
2018-05-06T09:08:30.919Z,2.17
2018-05-06T09:10:58.314Z,2.50
2018-05-06T09:13:25.713Z,1.63
2018-05-06T09:15:53.165Z,2.20
2018-05-06T09:18:20.552Z,1.90
2018-05-06T09:20:47.941Z,2.27
2018-05-06T09:23:15.337Z,2.30
2018-05-06T09:25:42.788Z,2.40
2018-05-06T09:28:10.993Z,1.80
2018-05-06T09:30:38.370Z,1.60
2018-05-06T09:33:05.762Z,1.83
2018-05-06T09:35:33.158Z,2.30
2018-05-06T09:38:00.544Z,2.27
2018-05-06T09:40:27.960Z,2.17
2018-05-06T09:42:55.421Z,2.10
2018-05-06T09:45:22.813Z,2.40
2018-05-06T09:47:50.330Z,2.17
2018-05-06T09:50:17.681Z,2.20
2018-05-06T09:52:45.148Z,2.37
2018-05-06T09:55:12.526Z,2.07
2018-05-06T09:57:39.954Z,2.00
2018-05-06T10:00:07.350Z,1.97
2018-05-06T10:02:34.732Z,1.50
2018-05-06T10:05:02.133Z,2.60
2018-05-06T10:07:29.575Z,1.67
2018-05-06T10:09:56.981Z,1.80
2018-05-06T10:12:24.368Z,2.00
2018-05-06T10:14:52.738Z,1.50
2018-05-06T10:17:20.123Z,1.53
2018-05-06T10:19:47.522Z,1.70
2018-05-06T10:22:14.970Z,1.70
2018-05-06T10:24:42.320Z,2.10
2018-05-06T10:27:09.718Z,1.50
2018-05-06T10:29:37.119Z,1.50
2018-05-06T10:32:04.504Z,1.13
2018-05-06T10:34:32.893Z,1.60
2018-05-06T10:37:00.397Z,1.70
2018-05-06T10:39:27.798Z,1.80
2018-05-06T10:41:55.220Z,1.90
2018-05-06T10:44:22.688Z,1.63
2018-05-06T10:46:50.025Z,1.60
2018-05-06T10:49:17.565Z,1.87
2018-05-06T10:51:44.883Z,2.10
2018-05-06T10:54:12.276Z,1.50
2018-05-06T10:56:39.686Z,1.47
2018-05-06T10:59:07.084Z,1.50
2018-05-06T11:01:34.607Z,1.60
2018-05-06T11:04:02.113Z,1.53
2018-05-06T11:06:29.418Z,1.73
2018-05-06T11:08:56.819Z,1.40
2018-05-06T11:11:24.233Z,1.30
2018-05-06T11:13:51.640Z,1.50
2018-05-06T11:16:19.026Z,1.87
2018-05-06T11:18:46.424Z,1.97
2018-05-06T11:21:13.821Z,1.30
2018-05-06T11:23:41.239Z,1.70
2018-05-06T11:26:08.719Z,2.03
2018-05-06T11:28:36.074Z,1.40
2018-05-06T11:31:03.478Z,1.30
2018-05-06T11:33:30.990Z,2.07
2018-05-06T11:35:58.366Z,1.63
2018-05-06T11:38:25.774Z,1.30
2018-05-06T11:40:53.235Z,1.60
2018-05-06T11:43:20.689Z,1.40
2018-05-06T11:45:48.084Z,1.23
2018-05-06T11:48:15.493Z,1.23
2018-05-06T11:50:42.925Z,1.10
2018-05-06T11:53:10.310Z,1.40
2018-05-06T11:55:37.721Z,1.30
2018-05-06T11:58:05.168Z,1.20
2018-05-06T12:00:32.569Z,1.20
2018-05-06T12:03:00.013Z,1.00
2018-05-06T12:05:27.410Z,1.33
2018-05-06T12:07:54.797Z,1.07
2018-05-06T12:10:22.203Z,1.30
2018-05-06T12:12:49.597Z,1.13
2018-05-06T12:15:17.030Z,1.60
2018-05-06T12:17:44.473Z,1.07
2018-05-06T12:20:12.018Z,1.20
2018-05-06T12:22:39.428Z,1.00
2018-05-06T12:25:06.825Z,1.00
2018-05-06T12:27:34.258Z,1.10
2018-05-06T12:30:01.657Z,1.00
2018-05-06T12:32:29.053Z,1.17
2018-05-06T12:34:56.512Z,1.00
2018-05-06T12:37:23.998Z,1.30
2018-05-06T12:39:51.435Z,1.03
2018-05-06T12:42:18.812Z,1.10
2018-05-06T12:44:46.235Z,1.20
2018-05-06T12:47:13.687Z,0.90
2018-05-06T12:49:41.089Z,1.77
2018-05-06T12:52:08.506Z,1.20
2018-05-06T12:54:35.979Z,2.13
2018-05-06T12:57:03.708Z,1.00
2018-05-06T12:59:31.106Z,1.10
2018-05-06T13:01:58.505Z,1.30
2018-05-06T13:04:25.980Z,1.17
2018-05-06T13:06:53.414Z,1.20
2018-05-06T13:09:20.868Z,0.80
2018-05-06T13:11:48.253Z,1.20
2018-05-06T13:14:15.676Z,0.90
2018-05-06T13:16:43.077Z,1.10
2018-05-06T13:19:10.504Z,1.20
2018-05-06T13:21:37.885Z,1.00
2018-05-06T13:24:05.637Z,1.63
2018-05-06T13:26:33.009Z,0.93
2018-05-06T13:29:00.418Z,1.10
2018-05-06T13:31:27.820Z,1.10
2018-05-06T13:33:55.234Z,1.27
2018-05-06T13:36:22.637Z,0.90
2018-05-06T13:38:50.047Z,1.00
2018-05-06T13:41:17.436Z,0.97
2018-05-06T13:43:44.822Z,1.10
2018-05-06T13:46:12.225Z,1.07
2018-05-06T13:48:39.605Z,0.80
2018-05-06T13:51:07.370Z,0.97
2018-05-06T13:53:34.776Z,1.10
2018-05-06T13:56:02.192Z,0.90
2018-05-06T13:58:29.645Z,0.90
2018-05-06T14:00:57.124Z,0.83
2018-05-06T14:03:24.517Z,0.83
2018-05-06T14:05:51.930Z,1.23
2018-05-06T14:08:19.320Z,0.90
2018-05-06T14:10:46.729Z,0.90
2018-05-06T14:13:14.117Z,1.43
2018-05-06T14:15:41.533Z,0.90
2018-05-06T14:18:09.004Z,1.00
2018-05-06T14:20:36.411Z,2.23
2018-05-06T14:23:03.813Z,1.00
2018-05-06T14:25:31.209Z,1.20
2018-05-06T14:27:58.597Z,1.30
2018-05-06T14:30:25.998Z,0.93
2018-05-06T14:32:53.441Z,1.10
2018-05-06T14:35:20.901Z,1.50
2018-05-06T14:37:48.352Z,1.20
2018-05-06T14:40:15.812Z,0.90
2018-05-06T14:42:43.221Z,1.07
2018-05-06T14:45:10.633Z,1.10
2018-05-06T14:47:49.929Z,1.10
2018-05-06T14:50:17.325Z,1.00
2018-05-06T14:52:44.724Z,1.00
2018-05-06T14:55:12.137Z,0.90
2018-05-06T14:57:39.637Z,1.10
2018-05-06T15:00:07.041Z,1.37
2018-05-06T15:02:34.498Z,1.10
2018-05-06T15:05:01.905Z,0.83
2018-05-06T15:07:29.330Z,1.00
2018-05-06T15:09:56.833Z,1.17
2018-05-06T15:12:24.262Z,1.20
2018-05-06T15:14:51.652Z,1.10
2018-05-06T15:17:19.051Z,1.20
2018-05-06T15:19:46.469Z,0.97
2018-05-06T15:22:13.867Z,1.20
2018-05-06T15:24:41.259Z,0.90
2018-05-06T15:27:08.686Z,1.07
2018-05-06T15:29:36.095Z,1.23
2018-05-06T15:32:03.489Z,1.30
2018-05-06T15:34:31.838Z,1.33
2018-05-06T15:36:59.332Z,1.20
2018-05-06T15:39:26.753Z,1.33
2018-05-06T15:41:54.146Z,1.03
2018-05-06T15:44:21.537Z,0.77
2018-05-06T15:46:48.966Z,1.00
2018-05-06T15:49:16.359Z,1.20
2018-05-06T15:51:43.750Z,1.50
2018-05-06T15:54:11.150Z,1.40
2018-05-06T15:56:38.554Z,1.47
2018-05-06T15:59:05.954Z,1.10
2018-05-06T16:01:33.341Z,0.90
2018-05-06T16:04:12.516Z,1.00
2018-05-06T16:06:40.053Z,0.90
2018-05-06T16:09:07.384Z,1.13
2018-05-06T16:11:34.786Z,1.07
2018-05-06T16:14:02.266Z,1.00
2018-05-06T16:16:29.723Z,1.20
2018-05-06T16:18:57.206Z,1.97
2018-05-06T16:21:24.705Z,1.17
2018-05-06T16:23:52.197Z,1.10
2018-05-06T16:26:19.592Z,1.60
2018-05-06T16:28:46.991Z,1.27
2018-05-06T16:31:14.472Z,1.50
2018-05-06T16:33:41.928Z,1.17
2018-05-06T16:36:09.316Z,1.33
2018-05-06T16:38:36.733Z,1.37
2018-05-06T16:41:04.148Z,1.43
2018-05-06T16:43:31.530Z,1.57
2018-05-06T16:45:58.945Z,1.20
2018-05-06T16:48:26.358Z,1.43
2018-05-06T16:50:53.782Z,1.37
2018-05-06T16:53:21.171Z,1.57
2018-05-06T16:55:48.706Z,1.70
2018-05-06T16:58:16.069Z,1.43
2018-05-06T17:00:43.485Z,1.53
2018-05-06T17:03:10.872Z,1.20
2018-05-06T17:05:38.270Z,1.40
2018-05-06T17:08:05.661Z,1.00
2018-05-06T17:10:33.048Z,1.50
2018-05-06T17:13:06.077Z,1.10
2018-05-06T17:15:33.574Z,1.40
2018-05-06T17:18:00.950Z,1.40
2018-05-06T17:20:28.344Z,1.13
2018-05-06T17:22:55.729Z,1.30
2018-05-06T17:25:23.129Z,1.20
2018-05-06T17:27:50.537Z,0.90
2018-05-06T17:30:17.931Z,1.40
2018-05-06T17:32:45.341Z,1.10
2018-05-06T17:35:12.785Z,1.50
2018-05-06T17:37:40.193Z,1.07
2018-05-06T17:40:07.669Z,1.13
2018-05-06T17:42:35.061Z,1.47
2018-05-06T17:45:02.489Z,1.17
2018-05-06T17:47:29.918Z,1.40
2018-05-06T17:49:57.455Z,1.43
2018-05-06T17:52:24.773Z,1.67
2018-05-06T17:54:52.152Z,1.03
2018-05-06T17:57:19.549Z,1.10
2018-05-06T17:59:46.944Z,1.33
2018-05-06T18:02:14.341Z,1.20
2018-05-06T18:04:41.740Z,1.20
2018-05-06T18:07:09.218Z,1.20
2018-05-06T18:09:36.676Z,1.33
2018-05-06T18:12:04.069Z,1.20
2018-05-06T18:14:31.472Z,1.50
2018-05-06T18:16:58.869Z,1.63
2018-05-06T18:19:26.257Z,1.43
2018-05-06T18:21:53.644Z,1.50
2018-05-06T18:24:21.038Z,1.60
2018-05-06T18:26:48.487Z,1.80
2018-05-06T18:29:15.908Z,1.50
2018-05-06T18:31:43.385Z,1.50
2018-05-06T18:34:10.779Z,1.50
2018-05-06T18:36:38.202Z,1.40
2018-05-06T18:39:06.199Z,1.37
2018-05-06T18:41:33.786Z,1.63
2018-05-06T18:44:01.370Z,1.20
2018-05-06T18:46:28.859Z,1.40
2018-05-06T18:48:56.310Z,1.40
2018-05-06T18:51:23.697Z,1.20
2018-05-06T18:53:51.169Z,1.20
2018-05-06T18:56:18.560Z,1.73
2018-05-06T18:58:46.006Z,1.40
2018-05-06T19:01:13.405Z,1.50
2018-05-06T19:03:40.788Z,1.63
2018-05-06T19:06:08.274Z,1.50
2018-05-06T19:08:35.668Z,1.67
2018-05-06T19:11:03.072Z,1.80
2018-05-06T19:13:30.452Z,1.40
2018-05-06T19:15:57.881Z,2.20
2018-05-06T19:18:25.265Z,2.13
2018-05-06T19:20:52.690Z,1.87
2018-05-06T19:23:20.209Z,1.60
2018-05-06T19:25:47.506Z,2.50
2018-05-06T19:28:14.995Z,1.73
2018-05-06T19:30:42.433Z,1.67
2018-05-06T19:33:09.884Z,1.90
2018-05-06T19:35:37.281Z,1.87
2018-05-06T19:38:04.694Z,1.70
2018-05-06T19:40:32.104Z,1.70
2018-05-06T19:42:59.602Z,1.63
2018-05-06T19:45:26.997Z,1.60
2018-05-06T19:47:54.394Z,1.40
2018-05-06T19:50:21.779Z,1.37
2018-05-06T19:52:49.229Z,1.40
2018-05-06T19:55:16.617Z,1.30
2018-05-06T19:57:44.024Z,3.50
2018-05-06T20:00:11.400Z,3.60
2018-05-06T20:02:38.861Z,4.00
2018-05-06T20:05:06.317Z,3.20
2018-05-06T20:07:33.712Z,2.97
2018-05-06T20:10:01.134Z,2.23
2018-05-06T20:12:28.533Z,1.80
2018-05-06T20:14:55.928Z,1.97
2018-05-06T20:17:23.339Z,1.60
2018-05-06T20:19:50.759Z,1.60
2018-05-06T20:22:18.156Z,1.80
2018-05-06T20:24:45.574Z,1.90
2018-05-06T20:27:12.965Z,1.90
2018-05-06T20:29:40.373Z,1.67
2018-05-06T20:32:07.829Z,1.80
2018-05-06T20:34:35.217Z,2.33
2018-05-06T20:37:02.605Z,1.63
2018-05-06T20:39:29.997Z,1.33
2018-05-06T20:41:57.420Z,1.70
2018-05-06T20:44:24.861Z,1.50
2018-05-06T20:46:52.288Z,1.30
2018-05-06T20:49:19.677Z,1.67
2018-05-06T20:51:47.105Z,1.40
2018-05-06T20:54:14.542Z,1.70
2018-05-06T20:56:41.935Z,1.50
2018-05-06T20:59:09.330Z,1.80
2018-05-06T21:01:36.789Z,2.23
2018-05-06T21:04:04.265Z,1.60
2018-05-06T21:06:31.724Z,1.50
2018-05-06T21:08:59.493Z,2.10
2018-05-06T21:11:26.881Z,1.63
2018-05-06T21:13:54.321Z,2.20
2018-05-06T21:16:21.765Z,2.67
2018-05-06T21:18:50.390Z,1.90
2018-05-06T21:21:17.965Z,1.97
2018-05-06T21:23:45.351Z,1.97
2018-05-06T21:26:12.748Z,1.80
2018-05-06T21:28:40.154Z,2.17
2018-05-06T21:31:07.548Z,1.80
2018-05-06T21:33:34.963Z,1.83
2018-05-06T21:36:02.405Z,2.10
2018-05-06T21:38:29.776Z,2.40
2018-05-06T21:40:57.165Z,1.87
2018-05-06T21:43:24.645Z,2.80
2018-05-06T21:45:52.052Z,2.13
2018-05-06T21:48:19.458Z,2.50
2018-05-06T21:50:46.862Z,1.80
2018-05-06T21:53:14.258Z,1.73
2018-05-06T21:55:41.641Z,2.17
2018-05-06T21:58:09.091Z,2.07
2018-05-06T22:00:36.474Z,2.20
2018-05-06T22:03:03.895Z,2.10
2018-05-06T22:05:31.313Z,2.17
2018-05-06T22:07:58.710Z,2.30
2018-05-06T22:10:26.097Z,2.33
2018-05-06T22:12:53.493Z,4.37
2018-05-06T22:15:20.886Z,2.10
2018-05-06T22:17:48.276Z,2.00
2018-05-06T22:20:15.660Z,2.00
2018-05-06T22:22:43.060Z,2.10
2018-05-06T22:25:10.451Z,2.27
2018-05-06T22:27:37.911Z,2.30
2018-05-06T22:30:05.404Z,2.03
2018-05-06T22:32:32.801Z,1.93
2018-05-06T22:35:00.189Z,2.10
2018-05-06T22:37:27.692Z,2.37
2018-05-06T22:39:55.091Z,2.33
2018-05-06T22:42:22.473Z,2.23
2018-05-06T22:44:49.857Z,2.30
2018-05-06T22:47:17.280Z,2.60
2018-05-06T22:49:44.668Z,2.37
2018-05-06T22:52:12.086Z,2.10
2018-05-06T22:54:39.587Z,2.57
2018-05-06T22:57:06.989Z,2.40
2018-05-06T22:59:34.428Z,2.77
2018-05-06T23:02:01.788Z,2.23
2018-05-06T23:04:29.245Z,1.80
2018-05-06T23:06:56.634Z,2.23
2018-05-06T23:09:24.113Z,2.13
2018-05-06T23:11:51.503Z,2.03
2018-05-06T23:14:18.898Z,2.70
2018-05-06T23:16:46.290Z,2.20
2018-05-06T23:19:13.689Z,2.43
2018-05-06T23:21:41.089Z,2.60
2018-05-06T23:24:08.544Z,2.50
2018-05-06T23:26:36.063Z,2.27
2018-05-06T23:29:03.405Z,2.10
2018-05-06T23:31:30.796Z,1.90
2018-05-06T23:33:58.194Z,2.17
2018-05-06T23:36:25.601Z,2.77
2018-05-06T23:38:52.994Z,2.50
2018-05-06T23:41:20.377Z,2.37
2018-05-06T23:43:47.852Z,2.27
2018-05-06T23:46:15.177Z,2.33
2018-05-06T23:48:42.618Z,2.30
2018-05-06T23:51:09.983Z,2.43
2018-05-06T23:53:37.437Z,2.33
2018-05-06T23:56:04.840Z,3.40
2018-05-06T23:58:32.228Z,2.60
